DE30A LEAM-LEAM

Flight info

Callsign DE30A
Flight time N/A
Altitude 1500
Route DCT WHISKEY DCT LEGR DCT
Aircraft C152/L-V/N

Departure

Time 2026-05-07 17:39
Airport Almería Airport (LEAM)

Arrival

Time N/A
Airport Almería Airport (LEAM)
Time Latitude Longitude Altitude Speed Heading
2026-05-07 17:23 36.84646 -2.37267 37 ft 0 kts 242°
2026-05-07 17:32 36.84641 -2.37276 37 ft 5 kts 224°
2026-05-07 17:32 36.84605 -2.37309 37 ft 7 kts 217°
2026-05-07 17:32 36.84563 -2.37353 36 ft 9 kts 222°
2026-05-07 17:32 36.84508 -2.37369 36 ft 9 kts 144°
2026-05-07 17:33 36.84499 -2.37294 37 ft 10 kts 73°
2026-05-07 17:33 36.84520 -2.37211 38 ft 11 kts 75°
2026-05-07 17:33 36.84542 -2.37119 39 ft 11 kts 71°
2026-05-07 17:33 36.84567 -2.37021 40 ft 12 kts 73°
2026-05-07 17:34 36.84591 -2.36916 41 ft 13 kts 74°
2026-05-07 17:34 36.84619 -2.36804 42 ft 14 kts 72°
2026-05-07 17:34 36.84648 -2.36688 44 ft 14 kts 73°
2026-05-07 17:34 36.84677 -2.36568 45 ft 15 kts 72°
2026-05-07 17:35 36.84709 -2.36447 47 ft 15 kts 73°
2026-05-07 17:35 36.84738 -2.36320 49 ft 15 kts 72°
2026-05-07 17:35 36.84771 -2.36193 50 ft 16 kts 72°
2026-05-07 17:35 36.84802 -2.36061 51 ft 16 kts 73°
2026-05-07 17:36 36.84835 -2.35926 53 ft 16 kts 73°
2026-05-07 17:36 36.84869 -2.35791 55 ft 16 kts 73°
2026-05-07 17:36 36.84903 -2.35653 54 ft 17 kts 73°
2026-05-07 17:36 36.84938 -2.35514 58 ft 17 kts 76°
2026-05-07 17:37 36.84943 -2.35380 60 ft 15 kts 119°
2026-05-07 17:37 36.84863 -2.35329 60 ft 12 kts 181°
2026-05-07 17:37 36.84797 -2.35386 59 ft 12 kts 248°
2026-05-07 17:37 36.84793 -2.35398 59 ft 0 kts 258°
2026-05-07 17:38 36.84791 -2.35408 55 ft 12 kts 255°
2026-05-07 17:38 36.84712 -2.35737 61 ft 60 kts 251°
2026-05-07 17:38 36.84591 -2.36280 199 ft 65 kts 255°
2026-05-07 17:38 36.84494 -2.36829 391 ft 64 kts 257°
2026-05-07 17:39 36.84420 -2.37370 613 ft 65 kts 256°
2026-05-07 17:39 36.84373 -2.37922 800 ft 65 kts 263°
2026-05-07 17:39 36.84333 -2.38475 1012 ft 64 kts 260°
2026-05-07 17:39 36.84278 -2.39021 1183 ft 63 kts 258°
2026-05-07 17:40 36.84207 -2.39564 1363 ft 62 kts 257°
2026-05-07 17:40 36.84141 -2.40116 1563 ft 64 kts 259°
2026-05-07 17:40 36.84075 -2.40663 1727 ft 66 kts 262°
2026-05-07 17:40 36.84040 -2.41232 1894 ft 65 kts 263°
2026-05-07 17:41 36.83946 -2.41780 2043 ft 63 kts 252°
2026-05-07 17:41 36.83855 -2.42323 2168 ft 66 kts 263°
2026-05-07 17:41 36.83782 -2.42864 2306 ft 62 kts 258°
2026-05-07 17:41 36.83656 -2.43372 2465 ft 61 kts 242°
2026-05-07 17:42 36.83466 -2.43861 2572 ft 66 kts 253°
2026-05-07 17:42 36.83405 -2.44419 2692 ft 67 kts 262°
2026-05-07 17:42 36.83297 -2.44997 2808 ft 66 kts 252°
2026-05-07 17:42 36.83153 -2.45538 2924 ft 66 kts 250°
2026-05-07 17:43 36.82990 -2.46072 3060 ft 66 kts 249°
2026-05-07 17:43 36.82836 -2.46620 3187 ft 67 kts 251°
2026-05-07 17:43 36.82679 -2.47168 3317 ft 68 kts 252°
2026-05-07 17:43 36.82543 -2.47737 3446 ft 67 kts 256°
2026-05-07 17:44 36.82435 -2.48307 3560 ft 68 kts 259°
2026-05-07 17:44 36.82348 -2.48893 3632 ft 72 kts 259°
2026-05-07 17:44 36.82240 -2.49490 3776 ft 69 kts 258°
2026-05-07 17:44 36.82126 -2.50074 3894 ft 69 kts 257°
2026-05-07 17:45 36.81996 -2.50662 3998 ft 69 kts 255°
2026-05-07 17:45 36.81841 -2.51229 4138 ft 67 kts 250°
2026-05-07 17:45 36.81632 -2.51742 4242 ft 68 kts 248°
2026-05-07 17:45 36.81465 -2.52294 4359 ft 67 kts 252°
2026-05-07 17:46 36.81306 -2.52837 4460 ft 67 kts 251°
2026-05-07 17:46 36.81126 -2.53372 4569 ft 68 kts 252°
2026-05-07 17:46 36.81002 -2.53964 4664 ft 68 kts 260°
2026-05-07 17:46 36.80897 -2.54553 4749 ft 72 kts 256°
2026-05-07 17:47 36.80731 -2.55131 4847 ft 71 kts 255°
2026-05-07 17:47 36.80622 -2.55724 4947 ft 70 kts 257°
2026-05-07 17:47 36.80491 -2.56307 5036 ft 70 kts 255°
2026-05-07 17:47 36.80320 -2.56922 5051 ft 78 kts 254°
2026-05-07 17:48 36.80147 -2.57518 5176 ft 73 kts 252°
2026-05-07 17:48 36.79957 -2.58185 5103 ft 86 kts 256°
2026-05-07 17:48 36.79867 -2.58900 5076 ft 83 kts 275°
2026-05-07 17:48 36.80066 -2.59564 5046 ft 84 kts 304°
2026-05-07 17:49 36.80506 -2.60015 5066 ft 81 kts 333°
2026-05-07 17:49 36.81071 -2.60120 5053 ft 85 kts
2026-05-07 17:49 36.81654 -2.60039 5069 ft 84 kts
2026-05-07 17:49 36.82235 -2.59976 5048 ft 86 kts 359°
2026-05-07 17:50 36.82815 -2.59937 5100 ft 82 kts
2026-05-07 17:50 36.83393 -2.59836 5103 ft 84 kts
2026-05-07 17:50 36.83956 -2.59740 5143 ft 80 kts
2026-05-07 17:50 36.84527 -2.59649 5099 ft 87 kts
2026-05-07 17:51 36.85135 -2.59494 5038 ft 91 kts
2026-05-07 17:51 36.85753 -2.59327 5011 ft 91 kts
2026-05-07 17:51 36.86363 -2.59123 4969 ft 93 kts 11°
2026-05-07 17:51 36.86971 -2.58907 4973 ft 89 kts 13°
2026-05-07 17:52 36.87558 -2.58697 4983 ft 87 kts
2026-05-07 17:52 36.88159 -2.58600 5000 ft 86 kts
2026-05-07 17:52 36.88756 -2.58449 5037 ft 86 kts
2026-05-07 17:52 36.89330 -2.58187 5009 ft 90 kts 19°
2026-05-07 17:53 36.89903 -2.57906 5021 ft 89 kts 13°
2026-05-07 17:53 36.90490 -2.57717 5005 ft 88 kts 11°
2026-05-07 17:53 36.91070 -2.57486 5009 ft 85 kts 15°
2026-05-07 17:53 36.91666 -2.57249 5001 ft 89 kts 13°
2026-05-07 17:54 36.92248 -2.57059 5010 ft 90 kts 10°
2026-05-07 17:54 36.92848 -2.56914 5007 ft 85 kts
2026-05-07 17:54 36.93427 -2.56906 5056 ft 77 kts 354°
2026-05-07 17:54 36.93983 -2.56968 5042 ft 81 kts 347°
2026-05-07 17:55 36.94542 -2.57058 5050 ft 81 kts 346°
2026-05-07 17:55 36.95085 -2.57210 5080 ft 80 kts 339°
2026-05-07 17:55 36.95559 -2.57611 5014 ft 79 kts 296°
2026-05-07 17:55 36.95681 -2.58266 5010 ft 79 kts 281°
2026-05-07 17:56 36.95820 -2.58929 5077 ft 75 kts 283°
2026-05-07 17:56 36.95907 -2.59533 5196 ft 69 kts 278°
2026-05-07 17:56 36.95972 -2.60118 5313 ft 69 kts 278°
2026-05-07 17:56 36.96023 -2.60691 5431 ft 67 kts 277°
2026-05-07 17:57 36.96075 -2.61288 5541 ft 67 kts 272°
2026-05-07 17:57 36.96116 -2.61677 5608 ft 68 kts 281°
2026-05-07 17:57 36.96217 -2.62448 5752 ft 67 kts 279°
2026-05-07 17:57 36.96355 -2.63022 5845 ft 67 kts 289°
2026-05-07 17:58 36.96512 -2.63569 5953 ft 65 kts 289°
2026-05-07 17:58 36.96657 -2.64091 6112 ft 63 kts 291°
2026-05-07 17:58 36.96779 -2.64635 6194 ft 70 kts 279°
2026-05-07 17:58 36.96801 -2.65222 6339 ft 67 kts 275°
2026-05-07 17:59 36.96834 -2.65807 6474 ft 67 kts 275°
2026-05-07 17:59 36.96824 -2.66365 6611 ft 64 kts 274°
2026-05-07 17:59 36.96874 -2.66917 6750 ft 61 kts 278°
2026-05-07 17:59 36.96926 -2.67484 6825 ft 70 kts 277°
2026-05-07 18:00 36.96970 -2.68082 6954 ft 69 kts 271°
2026-05-07 18:00 36.96943 -2.68703 6999 ft 74 kts 270°
2026-05-07 18:00 36.96946 -2.69367 7041 ft 80 kts 272°
2026-05-07 18:00 36.97014 -2.70098 7020 ft 88 kts 278°
2026-05-07 18:01 36.97090 -2.70870 6999 ft 91 kts 276°
2026-05-07 18:01 36.97170 -2.71681 6948 ft 93 kts 276°
2026-05-07 18:01 36.97209 -2.72466 6981 ft 88 kts 271°
2026-05-07 18:01 36.97221 -2.73206 7038 ft 84 kts 270°
2026-05-07 18:02 36.97041 -2.74736 6928 ft 93 kts 258°
2026-05-07 18:02 36.96886 -2.75503 6924 ft 90 kts 256°
2026-05-07 18:02 36.96719 -2.76240 6961 ft 86 kts 255°
2026-05-07 18:03 36.96547 -2.76938 7014 ft 83 kts 253°
2026-05-07 18:03 36.96365 -2.77598 7095 ft 80 kts 250°
2026-05-07 18:03 36.96192 -2.78285 7088 ft 86 kts 256°
2026-05-07 18:03 36.96047 -2.79011 7122 ft 84 kts 256°
2026-05-07 18:04 36.95913 -2.79639 7139 ft 85 kts 256°
2026-05-07 18:04 36.95759 -2.80314 7166 ft 85 kts 256°
2026-05-07 18:04 36.95594 -2.81009 7221 ft 79 kts 254°
2026-05-07 18:04 36.95423 -2.81642 7311 ft 77 kts 254°
2026-05-07 18:05 36.95221 -2.82272 7357 ft 78 kts 254°
2026-05-07 18:05 36.95073 -2.82932 7352 ft 81 kts 253°
2026-05-07 18:05 36.94897 -2.83596 7393 ft 79 kts 257°
2026-05-07 18:05 36.94762 -2.84244 7493 ft 73 kts 256°
2026-05-07 18:06 36.94621 -2.84875 7505 ft 79 kts 259°
2026-05-07 18:06 36.94481 -2.85539 7537 ft 79 kts 255°
2026-05-07 18:06 36.94287 -2.86175 7601 ft 77 kts 257°
2026-05-07 18:06 36.94271 -2.86866 7613 ft 84 kts 274°
2026-05-07 18:07 36.94302 -2.87598 7643 ft 84 kts 270°
2026-05-07 18:07 36.94251 -2.88331 7650 ft 85 kts 261°
2026-05-07 18:07 36.94087 -2.89027 7688 ft 81 kts 251°
2026-05-07 18:07 36.93881 -2.89676 7735 ft 78 kts 255°
2026-05-07 18:08 36.93765 -2.90350 7774 ft 77 kts 262°
2026-05-07 18:08 36.93685 -2.90993 7851 ft 74 kts 261°
2026-05-07 18:08 36.93525 -2.91603 7937 ft 76 kts 246°
2026-05-07 18:08 36.93305 -2.92197 8022 ft 74 kts 255°
2026-05-07 18:09 36.93197 -2.92826 8102 ft 74 kts 263°
2026-05-07 18:09 36.93143 -2.93465 8176 ft 74 kts 263°
2026-05-07 18:09 36.93064 -2.94095 8248 ft 73 kts 265°
2026-05-07 18:09 36.93017 -2.94730 8321 ft 73 kts 266°
2026-05-07 18:10 36.92981 -2.95358 8376 ft 74 kts 268°
2026-05-07 18:10 36.92949 -2.95997 8445 ft 73 kts 265°
2026-05-07 18:10 36.92873 -2.96613 8471 ft 73 kts 264°
2026-05-07 18:10 36.92822 -2.97254 8515 ft 73 kts 266°
2026-05-07 18:11 36.92794 -2.97680 8531 ft 75 kts 266°
2026-05-07 18:11 36.92738 -2.98338 8547 ft 78 kts 264°
2026-05-07 18:11 36.92654 -2.99004 8575 ft 77 kts 262°
2026-05-07 18:11 36.92575 -2.99647 8653 ft 72 kts 261°
2026-05-07 18:12 36.92490 -3.00274 8692 ft 74 kts 261°
2026-05-07 18:12 36.92363 -3.00895 8766 ft 73 kts 257°
2026-05-07 18:12 36.92243 -3.01516 8818 ft 73 kts 261°
2026-05-07 18:12 36.92156 -3.02136 8851 ft 74 kts 261°
2026-05-07 18:13 36.92059 -3.02765 8910 ft 74 kts 259°
2026-05-07 18:13 36.91904 -3.03374 8959 ft 73 kts 249°
2026-05-07 18:13 36.91688 -3.03963 8949 ft 75 kts 243°
2026-05-07 18:13 36.91454 -3.04537 8912 ft 74 kts 253°
2026-05-07 18:14 36.91347 -3.05168 8905 ft 74 kts 263°
2026-05-07 18:14 36.91265 -3.05794 8954 ft 73 kts 259°
2026-05-07 18:14 36.91160 -3.06324 9004 ft 74 kts 257°
2026-05-07 18:14 36.91045 -3.06944 9054 ft 74 kts 262°
2026-05-07 18:15 36.90974 -3.07575 9082 ft 73 kts 262°
2026-05-07 18:15 36.90878 -3.08227 9080 ft 78 kts 261°
2026-05-07 18:15 36.90769 -3.08891 9100 ft 78 kts 256°
2026-05-07 18:15 36.90617 -3.09547 9085 ft 79 kts 259°
2026-05-07 18:16 36.90524 -3.10210 9104 ft 75 kts 262°
2026-05-07 18:16 36.90437 -3.10866 9097 ft 78 kts 264°
2026-05-07 18:16 36.90394 -3.11533 9131 ft 76 kts 265°
2026-05-07 18:16 36.90295 -3.12189 9115 ft 78 kts 257°
2026-05-07 18:17 36.90136 -3.12831 9116 ft 78 kts 258°
2026-05-07 18:17 36.90084 -3.13502 9129 ft 77 kts 267°
2026-05-07 18:17 36.90044 -3.14168 9154 ft 77 kts 265°
2026-05-07 18:17 36.89966 -3.14828 9175 ft 77 kts 259°
2026-05-07 18:18 36.89844 -3.15478 9188 ft 77 kts 260°
2026-05-07 18:18 36.89778 -3.16137 9192 ft 77 kts 266°
2026-05-07 18:18 36.89723 -3.16802 9194 ft 77 kts 264°
2026-05-07 18:18 36.89637 -3.17465 9212 ft 77 kts 262°
2026-05-07 18:19 36.89551 -3.18128 9238 ft 77 kts 262°
2026-05-07 18:19 36.89465 -3.18788 9259 ft 77 kts 261°
2026-05-07 18:19 36.89338 -3.19442 9295 ft 77 kts 257°
2026-05-07 18:19 36.89273 -3.20108 9337 ft 77 kts 268°
2026-05-07 18:20 36.89224 -3.20772 9361 ft 78 kts 265°
2026-05-07 18:20 36.89159 -3.21433 9391 ft 76 kts 264°
2026-05-07 18:20 36.89116 -3.22104 9409 ft 77 kts 267°
2026-05-07 18:20 36.89055 -3.22764 9462 ft 77 kts 262°
2026-05-07 18:21 36.88965 -3.23420 9498 ft 77 kts 262°
2026-05-07 18:21 36.88878 -3.24072 9524 ft 77 kts 263°
2026-05-07 18:21 36.88830 -3.24746 9551 ft 76 kts 269°
2026-05-07 18:21 36.88827 -3.25404 9558 ft 77 kts 270°
2026-05-07 18:22 36.88837 -3.26064 9612 ft 75 kts 273°
2026-05-07 18:22 36.88870 -3.26506 9610 ft 77 kts 276°
2026-05-07 18:22 36.88945 -3.27390 9674 ft 76 kts 272°
2026-05-07 18:22 36.88976 -3.28058 9668 ft 78 kts 279°
2026-05-07 18:23 36.89082 -3.28723 9662 ft 78 kts 277°
2026-05-07 18:23 36.89157 -3.29375 9696 ft 77 kts 277°
2026-05-07 18:23 36.89243 -3.30036 9725 ft 77 kts 278°
2026-05-07 18:23 36.89341 -3.30692 9732 ft 77 kts 280°
2026-05-07 18:24 36.89457 -3.31348 9748 ft 77 kts 281°
2026-05-07 18:24 36.89554 -3.32006 9761 ft 76 kts 276°
2026-05-07 18:24 36.89579 -3.32672 9775 ft 77 kts 271°
2026-05-07 18:24 36.89614 -3.33345 9769 ft 78 kts 273°
2026-05-07 18:25 36.89649 -3.33802 9767 ft 77 kts 277°
2026-05-07 18:25 36.89737 -3.34461 9786 ft 77 kts 278°
2026-05-07 18:25 36.89811 -3.35129 9831 ft 77 kts 277°
2026-05-07 18:25 36.89883 -3.35788 9863 ft 77 kts 276°
2026-05-07 18:26 36.89932 -3.36454 9885 ft 77 kts 272°
2026-05-07 18:26 36.89939 -3.37124 9898 ft 77 kts 268°
2026-05-07 18:26 36.89931 -3.37796 9911 ft 78 kts 273°
2026-05-07 18:26 36.90001 -3.38461 9946 ft 76 kts 278°
2026-05-07 18:27 36.90091 -3.39121 9951 ft 78 kts 279°
2026-05-07 18:27 36.90244 -3.39765 9964 ft 79 kts 288°
2026-05-07 18:27 36.90414 -3.40408 9986 ft 77 kts 285°
2026-05-07 18:27 36.90583 -3.41056 9970 ft 81 kts 290°
2026-05-07 18:28 36.90900 -3.41627 9993 ft 80 kts 309°
2026-05-07 18:28 36.91334 -3.42082 10000 ft 82 kts 316°
2026-05-07 18:28 36.91761 -3.42525 10018 ft 79 kts 311°
2026-05-07 18:28 36.92186 -3.42987 10001 ft 81 kts 315°
2026-05-07 18:29 36.92628 -3.43456 10003 ft 83 kts 313°
2026-05-07 18:29 36.93065 -3.43925 10024 ft 84 kts 317°
2026-05-07 18:29 36.93528 -3.44375 10012 ft 86 kts 317°
2026-05-07 18:29 36.93994 -3.44863 9982 ft 87 kts 316°
2026-05-07 18:30 36.94456 -3.45345 9953 ft 87 kts 319°
2026-05-07 18:30 36.94911 -3.45811 9988 ft 83 kts 318°
2026-05-07 18:30 36.95340 -3.46291 9997 ft 83 kts 315°
2026-05-07 18:30 36.95727 -3.46836 9916 ft 86 kts 310°
2026-05-07 18:31 36.96125 -3.47369 9853 ft 81 kts 314°
2026-05-07 18:31 36.96530 -3.47903 9791 ft 85 kts 313°
2026-05-07 18:31 36.96962 -3.48378 9811 ft 82 kts 320°
2026-05-07 18:31 36.97420 -3.48826 9771 ft 87 kts 320°
2026-05-07 18:32 36.97901 -3.49264 9798 ft 83 kts 325°
2026-05-07 18:32 36.98386 -3.49683 9796 ft 86 kts 322°
2026-05-07 18:32 36.98872 -3.50085 9843 ft 83 kts 326°
2026-05-07 18:32 36.99371 -3.50480 9845 ft 85 kts 323°
2026-05-07 18:33 36.99823 -3.50918 9825 ft 83 kts 315°
2026-05-07 18:33 37.00144 -3.51523 9736 ft 84 kts 297°
2026-05-07 18:33 37.00498 -3.52080 9728 ft 82 kts 321°
2026-05-07 18:33 37.00951 -3.52523 9732 ft 83 kts 319°
2026-05-07 18:34 37.01405 -3.52978 9728 ft 85 kts 319°
2026-05-07 18:34 37.01852 -3.53451 9707 ft 83 kts 317°
2026-05-07 18:34 37.02262 -3.53965 9721 ft 82 kts 310°
2026-05-07 18:34 37.02632 -3.54498 9721 ft 83 kts 315°
2026-05-07 18:35 37.03071 -3.54961 9722 ft 81 kts 317°
2026-05-07 18:35 37.03539 -3.55454 9493 ft 96 kts 321°
2026-05-07 18:35 37.04081 -3.55960 9349 ft 94 kts 321°
2026-05-07 18:35 37.04610 -3.56448 9202 ft 98 kts 322°
2026-05-07 18:36 37.05169 -3.56957 9046 ft 99 kts 321°
2026-05-07 18:36 37.05702 -3.57461 8975 ft 92 kts 321°
2026-05-07 18:36 37.06195 -3.57935 9004 ft 85 kts 319°
2026-05-07 18:36 37.06633 -3.58372 9078 ft 79 kts 320°
2026-05-07 18:37 37.07065 -3.58799 9079 ft 81 kts 318°
2026-05-07 18:37 37.07475 -3.59305 9064 ft 84 kts 314°
2026-05-07 18:37 37.07930 -3.59787 9038 ft 86 kts 321°
2026-05-07 18:37 37.08400 -3.60260 9004 ft 88 kts 320°
2026-05-07 18:38 37.08870 -3.60718 9077 ft 80 kts 319°
2026-05-07 18:38 37.09303 -3.61183 9061 ft 84 kts 320°
2026-05-07 18:38 37.09775 -3.61651 8976 ft 89 kts 318°
2026-05-07 18:38 37.10255 -3.62125 8935 ft 88 kts 322°
2026-05-07 18:39 37.10764 -3.62584 8826 ft 92 kts 323°
2026-05-07 18:39 37.11284 -3.63038 8780 ft 90 kts 323°
2026-05-07 18:39 37.11795 -3.63483 8748 ft 88 kts 322°
2026-05-07 18:39 37.12243 -3.64013 8705 ft 89 kts 309°
2026-05-07 18:40 37.12632 -3.64616 8674 ft 89 kts 309°
2026-05-07 18:40 37.13006 -3.65229 8620 ft 90 kts 304°
2026-05-07 18:40 37.13388 -3.65844 8571 ft 89 kts 314°
2026-05-07 18:40 37.13831 -3.66360 8546 ft 87 kts 316°
2026-05-07 18:41 37.14313 -3.66918 8333 ft 99 kts 316°
2026-05-07 18:41 37.14800 -3.67455 8333 ft 88 kts 315°
2026-05-07 18:41 37.15187 -3.68045 8260 ft 89 kts 303°
2026-05-07 18:41 37.15523 -3.68691 8196 ft 88 kts 304°
2026-05-07 18:42 37.15876 -3.69309 8175 ft 88 kts 307°
2026-05-07 18:42 37.16202 -3.69975 8045 ft 96 kts 298°
2026-05-07 18:42 37.16463 -3.70813 7789 ft 96 kts 291°
2026-05-07 18:42 37.16723 -3.71475 7652 ft 103 kts 307°
2026-05-07 18:43 37.17201 -3.72195 7425 ft 102 kts 309°
2026-05-07 18:43 37.17664 -3.72814 7169 ft 96 kts 319°
2026-05-07 18:43 37.18135 -3.73443 6736 ft 97 kts 310°
2026-05-07 18:43 37.18424 -3.74247 6229 ft 95 kts 288°
2026-05-07 18:44 37.18667 -3.75002 5777 ft 91 kts 293°
2026-05-07 18:44 37.18995 -3.75699 5271 ft 93 kts 298°
2026-05-07 18:44 37.19273 -3.76391 4883 ft 87 kts 291°
2026-05-07 18:44 37.19511 -3.77100 4446 ft 89 kts 288°
2026-05-07 18:45 37.19728 -3.77823 4042 ft 88 kts 285°
2026-05-07 18:45 37.19928 -3.78539 3695 ft 86 kts 286°
2026-05-07 18:45 37.20277 -3.79092 3538 ft 84 kts 346°
2026-05-07 18:45 37.20729 -3.78700 3359 ft 87 kts 79°
2026-05-07 18:46 37.20771 -3.77928 3160 ft 83 kts 90°
2026-05-07 18:46 37.20811 -3.77247 3060 ft 78 kts 86°
2026-05-07 18:46 37.20870 -3.76584 2976 ft 76 kts 83°
2026-05-07 18:46 37.20910 -3.75907 2882 ft 78 kts 91°
2026-05-07 18:47 37.20877 -3.75241 2821 ft 75 kts 95°
2026-05-07 18:47 37.20821 -3.74572 2783 ft 78 kts 97°
2026-05-07 18:47 37.20617 -3.73981 2724 ft 77 kts 149°
2026-05-07 18:47 37.20095 -3.73915 2703 ft 72 kts 190°
2026-05-07 18:48 37.19595 -3.73974 2694 ft 72 kts 187°
2026-05-07 18:48 37.19118 -3.74141 2604 ft 78 kts 223°
2026-05-07 18:48 37.18871 -3.74755 2376 ft 81 kts 269°
2026-05-07 18:48 37.18891 -3.75369 2187 ft 64 kts 268°
2026-05-07 18:49 37.18889 -3.75918 1972 ft 60 kts 264°
2026-05-07 18:49 37.18887 -3.76383 1858 ft 42 kts 264°
2026-05-07 18:49 37.18880 -3.76528 1859 ft 14 kts 302°